sensor_id;sensor_type;location;lat;lon;timestamp;noise_LAeq;noise_LA_min;noise_LA_max;noise_LA01;noise_LA95
71020;Laerm;58902;51.436;5.980;2023-11-19T00:00:00;34.37;31.79;38.77;;
71020;Laerm;58902;51.436;5.980;2023-11-19T00:00:10;41.42;32.83;52.64;;
71020;Laerm;58902;51.436;5.980;2023-11-19T00:00:21;33.52;31.77;37.04;;
71020;Laerm;58902;51.436;5.980;2023-11-19T00:00:33;34.47;32.47;40.93;;
71020;Laerm;58902;51.436;5.980;2023-11-19T00:00:44;36.27;33.80;39.01;;
71020;Laerm;58902;51.436;5.980;2023-11-19T00:00:54;36.59;35.04;38.76;;
71020;Laerm;58902;51.436;5.980;2023-11-19T00:01:04;37.64;35.25;41.85;;
71020;Laerm;58902;51.436;5.980;2023-11-19T00:01:15;35.27;33.10;40.51;;
71020;Laerm;58902;51.436;5.980;2023-11-19T00:01:26;34.49;32.00;38.10;;
71020;Laerm;58902;51.436;5.980;2023-11-19T00:01:36;37.39;35.18;40.28;;
71020;Laerm;58902;51.436;5.980;2023-11-19T00:01:47;36.66;34.04;46.63;;
71020;Laerm;58902;51.436;5.980;2023-11-19T00:01:57;38.87;34.31;44.12;;
71020;Laerm;58902;51.436;5.980;2023-11-19T00:02:07;34.83;31.79;37.34;;
71020;Laerm;58902;51.436;5.980;2023-11-19T00:02:19;33.40;31.81;35.84;;
71020;Laerm;58902;51.436;5.980;2023-11-19T00:02:29;34.88;32.69;37.04;;
71020;Laerm;58902;51.436;5.980;2023-11-19T00:02:39;33.14;31.40;35.78;;
71020;Laerm;58902;51.436;5.980;2023-11-19T00:02:50;34.01;32.19;36.75;;
71020;Laerm;58902;51.436;5.980;2023-11-19T00:03:00;33.52;31.92;35.33;;
71020;Laerm;58902;51.436;5.980;2023-11-19T00:03:11;32.95;31.15;35.16;;
71020;Laerm;58902;51.436;5.980;2023-11-19T00:03:23;33.60;31.94;35.12;;
71020;Laerm;58902;51.436;5.980;2023-11-19T00:03:33;33.10;31.78;36.15;;
71020;Laerm;58902;51.436;5.980;2023-11-19T00:03:45;32.56;31.18;34.82;;
71020;Laerm;58902;51.436;5.980;2023-11-19T00:03:55;32.66;31.36;34.53;;
71020;Laerm;58902;51.436;5.980;2023-11-19T00:04:05;33.23;31.28;41.07;;
71020;Laerm;58902;51.436;5.980;2023-11-19T00:04:16;33.04;31.77;35.67;;
71020;Laerm;58902;51.436;5.980;2023-11-19T00:04:26;33.20;31.35;35.70;;
71020;Laerm;58902;51.436;5.980;2023-11-19T00:04:37;32.89;31.44;34.84;;
71020;Laerm;58902;51.436;5.980;2023-11-19T00:04:49;34.15;31.77;47.34;;
71020;Laerm;58902;51.436;5.980;2023-11-19T00:04:59;35.16;32.52;46.12;;
71020;Laerm;58902;51.436;5.980;2023-11-19T00:05:10;36.34;34.09;47.82;;
71020;Laerm;58902;51.436;5.980;2023-11-19T00:05:21;35.84;33.70;42.97;;
71020;Laerm;58902;51.436;5.980;2023-11-19T00:05:31;35.54;34.06;38.69;;
71020;Laerm;58902;51.436;5.980;2023-11-19T00:05:42;36.01;34.48;37.95;;
71020;Laerm;58902;51.436;5.980;2023-11-19T00:05:52;34.39;32.53;36.61;;
71020;Laerm;58902;51.436;5.980;2023-11-19T00:06:02;33.05;31.35;36.43;;
71020;Laerm;58902;51.436;5.980;2023-11-19T00:06:14;33.21;31.39;35.04;;
71020;Laerm;58902;51.436;5.980;2023-11-19T00:06:27;33.40;31.46;35.04;;
71020;Laerm;58902;51.436;5.980;2023-11-19T00:06:37;35.02;32.80;37.34;;
71020;Laerm;58902;51.436;5.980;2023-11-19T00:06:51;33.52;31.61;36.15;;
71020;Laerm;58902;51.436;5.980;2023-11-19T00:07:02;33.23;31.64;36.49;;
71020;Laerm;58902;51.436;5.980;2023-11-19T00:07:14;33.79;32.32;36.12;;
71020;Laerm;58902;51.436;5.980;2023-11-19T00:07:24;33.74;32.43;35.59;;
71020;Laerm;58902;51.436;5.980;2023-11-19T00:07:35;36.26;33.31;39.63;;
71020;Laerm;58902;51.436;5.980;2023-11-19T00:07:46;35.41;33.17;37.68;;
71020;Laerm;58902;51.436;5.980;2023-11-19T00:07:57;33.44;31.96;35.53;;
71020;Laerm;58902;51.436;5.980;2023-11-19T00:08:07;33.22;31.96;35.89;;
71020;Laerm;58902;51.436;5.980;2023-11-19T00:08:18;33.40;31.91;35.51;;
71020;Laerm;58902;51.436;5.980;2023-11-19T00:08:29;34.67;32.76;37.69;;
71020;Laerm;58902;51.436;5.980;2023-11-19T00:08:39;37.24;34.00;41.59;;
71020;Laerm;58902;51.436;5.980;2023-11-19T00:08:50;38.64;34.69;44.68;;
71020;Laerm;58902;51.436;5.980;2023-11-19T00:09:00;39.80;34.88;43.93;;
71020;Laerm;58902;51.436;5.980;2023-11-19T00:09:10;37.74;34.34;42.89;;
71020;Laerm;58902;51.436;5.980;2023-11-19T00:09:21;35.07;32.84;40.89;;
71020;Laerm;58902;51.436;5.980;2023-11-19T00:09:33;36.76;34.49;42.14;;
71020;Laerm;58902;51.436;5.980;2023-11-19T00:09:43;36.58;33.64;40.34;;
71020;Laerm;58902;51.436;5.980;2023-11-19T00:09:54;36.49;33.71;39.53;;
71020;Laerm;58902;51.436;5.980;2023-11-19T00:10:05;33.44;31.73;38.99;;
71020;Laerm;58902;51.436;5.980;2023-11-19T00:10:17;33.31;31.57;35.35;;
71020;Laerm;58902;51.436;5.980;2023-11-19T00:10:30;37.33;32.45;45.58;;
71020;Laerm;58902;51.436;5.980;2023-11-19T00:10:41;40.00;35.32;45.60;;
71020;Laerm;58902;51.436;5.980;2023-11-19T00:10:51;43.86;40.39;48.24;;
71020;Laerm;58902;51.436;5.980;2023-11-19T00:11:01;45.62;42.33;49.16;;
71020;Laerm;58902;51.436;5.980;2023-11-19T00:11:13;47.71;45.38;50.03;;
71020;Laerm;58902;51.436;5.980;2023-11-19T00:11:25;45.76;42.93;47.76;;
71020;Laerm;58902;51.436;5.980;2023-11-19T00:11:36;42.24;40.47;45.13;;
71020;Laerm;58902;51.436;5.980;2023-11-19T00:11:46;41.23;38.82;43.62;;
71020;Laerm;58902;51.436;5.980;2023-11-19T00:11:57;40.92;39.15;42.90;;
71020;Laerm;58902;51.436;5.980;2023-11-19T00:12:07;39.43;36.93;40.96;;
71020;Laerm;58902;51.436;5.980;2023-11-19T00:12:21;38.52;36.30;41.70;;
71020;Laerm;58902;51.436;5.980;2023-11-19T00:12:32;36.41;33.53;38.43;;
71020;Laerm;58902;51.436;5.980;2023-11-19T00:12:43;35.01;33.20;42.52;;
71020;Laerm;58902;51.436;5.980;2023-11-19T00:12:54;36.27;32.83;46.28;;
71020;Laerm;58902;51.436;5.980;2023-11-19T00:13:04;36.04;33.92;38.92;;
71020;Laerm;58902;51.436;5.980;2023-11-19T00:13:15;34.72;32.16;38.96;;
71020;Laerm;58902;51.436;5.980;2023-11-19T00:13:26;33.96;32.08;36.77;;
71020;Laerm;58902;51.436;5.980;2023-11-19T00:13:37;33.59;31.67;40.06;;
71020;Laerm;58902;51.436;5.980;2023-11-19T00:13:47;33.55;31.76;38.69;;
71020;Laerm;58902;51.436;5.980;2023-11-19T00:13:58;33.62;31.07;41.99;;
71020;Laerm;58902;51.436;5.980;2023-11-19T00:14:08;34.57;31.93;41.85;;
71020;Laerm;58902;51.436;5.980;2023-11-19T00:14:19;34.11;31.92;39.84;;
71020;Laerm;58902;51.436;5.980;2023-11-19T00:14:29;34.92;32.01;41.18;;
71020;Laerm;58902;51.436;5.980;2023-11-19T00:14:40;36.14;32.53;44.06;;
71020;Laerm;58902;51.436;5.980;2023-11-19T00:14:51;34.82;31.59;41.40;;
71020;Laerm;58902;51.436;5.980;2023-11-19T00:15:01;34.65;31.90;42.37;;
71020;Laerm;58902;51.436;5.980;2023-11-19T00:15:12;35.64;32.76;43.40;;
71020;Laerm;58902;51.436;5.980;2023-11-19T00:15:22;34.70;32.48;40.65;;
71020;Laerm;58902;51.436;5.980;2023-11-19T00:15:34;36.43;32.86;46.75;;
71020;Laerm;58902;51.436;5.980;2023-11-19T00:15:44;36.38;34.05;44.46;;
71020;Laerm;58902;51.436;5.980;2023-11-19T00:15:55;34.80;31.58;43.32;;
71020;Laerm;58902;51.436;5.980;2023-11-19T00:16:07;34.49;31.12;43.06;;
71020;Laerm;58902;51.436;5.980;2023-11-19T00:16:17;35.01;31.53;43.40;;
71020;Laerm;58902;51.436;5.980;2023-11-19T00:16:27;35.78;33.09;43.41;;
71020;Laerm;58902;51.436;5.980;2023-11-19T00:16:41;36.43;33.16;42.56;;
71020;Laerm;58902;51.436;5.980;2023-11-19T00:16:51;36.96;34.39;44.55;;
71020;Laerm;58902;51.436;5.980;2023-11-19T00:17:02;40.29;37.03;43.21;;
71020;Laerm;58902;51.436;5.980;2023-11-19T00:17:14;40.13;37.04;44.41;;
71020;Laerm;58902;51.436;5.980;2023-11-19T00:17:24;38.62;35.76;45.12;;
71020;Laerm;58902;51.436;5.980;2023-11-19T00:17:35;41.15;37.12;45.35;;
71020;Laerm;58902;51.436;5.980;2023-11-19T00:17:46;42.21;38.70;47.74;;
71020;Laerm;58902;51.436;5.980;2023-11-19T00:17:57;46.20;39.28;50.41;;
71020;Laerm;58902;51.436;5.980;2023-11-19T00:18:07;45.98;43.88;47.49;;
71020;Laerm;58902;51.436;5.980;2023-11-19T00:18:18;45.01;42.46;47.14;;
71020;Laerm;58902;51.436;5.980;2023-11-19T00:18:32;46.59;42.71;49.51;;
71020;Laerm;58902;51.436;5.980;2023-11-19T00:18:42;45.70;43.24;48.38;;
71020;Laerm;58902;51.436;5.980;2023-11-19T00:18:53;44.19;42.26;48.32;;
71020;Laerm;58902;51.436;5.980;2023-11-19T00:19:03;42.71;40.45;46.75;;
71020;Laerm;58902;51.436;5.980;2023-11-19T00:19:14;41.97;39.30;47.56;;
71020;Laerm;58902;51.436;5.980;2023-11-19T00:19:24;42.67;40.02;45.52;;
71020;Laerm;58902;51.436;5.980;2023-11-19T00:19:36;41.83;39.19;45.63;;
71020;Laerm;58902;51.436;5.980;2023-11-19T00:19:46;43.73;39.50;48.04;;
71020;Laerm;58902;51.436;5.980;2023-11-19T00:19:57;44.84;41.27;48.87;;
71020;Laerm;58902;51.436;5.980;2023-11-19T00:20:07;42.85;40.19;47.29;;
71020;Laerm;58902;51.436;5.980;2023-11-19T00:20:18;42.20;39.49;46.61;;
71020;Laerm;58902;51.436;5.980;2023-11-19T00:20:29;44.63;39.45;55.07;;
71020;Laerm;58902;51.436;5.980;2023-11-19T00:20:39;72.45;53.88;77.39;;
71020;Laerm;58902;51.436;5.980;2023-11-19T00:20:50;73.27;68.98;79.94;;
71020;Laerm;58902;51.436;5.980;2023-11-19T00:21:00;70.24;50.05;76.51;;
71020;Laerm;58902;51.436;5.980;2023-11-19T00:21:12;50.19;41.28;56.76;;
71020;Laerm;58902;51.436;5.980;2023-11-19T00:21:22;41.76;36.97;48.29;;
71020;Laerm;58902;51.436;5.980;2023-11-19T00:21:32;40.64;36.66;46.75;;
71020;Laerm;58902;51.436;5.980;2023-11-19T00:21:43;41.39;37.59;48.16;;
71020;Laerm;58902;51.436;5.980;2023-11-19T00:21:53;39.86;35.41;46.95;;
71020;Laerm;58902;51.436;5.980;2023-11-19T00:22:04;38.99;34.53;46.48;;
71020;Laerm;58902;51.436;5.980;2023-11-19T00:22:14;38.83;34.54;49.00;;
71020;Laerm;58902;51.436;5.980;2023-11-19T00:22:27;38.24;33.56;48.77;;
71020;Laerm;58902;51.436;5.980;2023-11-19T00:22:41;37.81;33.26;46.72;;
71020;Laerm;58902;51.436;5.980;2023-11-19T00:22:52;37.43;32.69;48.81;;
71020;Laerm;58902;51.436;5.980;2023-11-19T00:23:02;37.03;32.99;43.84;;
71020;Laerm;58902;51.436;5.980;2023-11-19T00:23:13;37.14;32.63;47.31;;
71020;Laerm;58902;51.436;5.980;2023-11-19T00:23:23;36.70;32.06;46.64;;
71020;Laerm;58902;51.436;5.980;2023-11-19T00:23:33;36.21;32.37;43.87;;
71020;Laerm;58902;51.436;5.980;2023-11-19T00:23:44;35.88;32.22;44.64;;
71020;Laerm;58902;51.436;5.980;2023-11-19T00:23:54;36.05;32.42;44.63;;
71020;Laerm;58902;51.436;5.980;2023-11-19T00:24:05;35.67;32.23;45.51;;
71020;Laerm;58902;51.436;5.980;2023-11-19T00:24:15;35.00;31.75;42.54;;
71020;Laerm;58902;51.436;5.980;2023-11-19T00:24:28;35.63;31.21;46.99;;
71020;Laerm;58902;51.436;5.980;2023-11-19T00:24:39;34.97;31.22;43.98;;
71020;Laerm;58902;51.436;5.980;2023-11-19T00:24:49;36.03;31.90;45.27;;
71020;Laerm;58902;51.436;5.980;2023-11-19T00:25:00;37.03;32.56;44.08;;
71020;Laerm;58902;51.436;5.980;2023-11-19T00:25:10;35.65;32.00;48.68;;
71020;Laerm;58902;51.436;5.980;2023-11-19T00:25:21;35.41;32.33;44.65;;
71020;Laerm;58902;51.436;5.980;2023-11-19T00:25:34;35.05;32.23;41.82;;
71020;Laerm;58902;51.436;5.980;2023-11-19T00:25:44;34.30;31.56;40.21;;
71020;Laerm;58902;51.436;5.980;2023-11-19T00:25:54;34.20;31.68;42.38;;
71020;Laerm;58902;51.436;5.980;2023-11-19T00:26:05;33.84;31.35;42.03;;
71020;Laerm;58902;51.436;5.980;2023-11-19T00:26:16;34.14;31.07;45.12;;
71020;Laerm;58902;51.436;5.980;2023-11-19T00:26:26;33.89;31.21;40.54;;
71020;Laerm;58902;51.436;5.980;2023-11-19T00:26:36;34.06;31.53;41.54;;
71020;Laerm;58902;51.436;5.980;2023-11-19T00:26:47;33.86;31.28;39.33;;
71020;Laerm;58902;51.436;5.980;2023-11-19T00:26:57;34.37;31.69;48.07;;
71020;Laerm;58902;51.436;5.980;2023-11-19T00:27:08;33.46;31.04;40.66;;
71020;Laerm;58902;51.436;5.980;2023-11-19T00:27:18;34.87;31.30;50.51;;
71020;Laerm;58902;51.436;5.980;2023-11-19T00:27:29;33.75;31.83;38.27;;
71020;Laerm;58902;51.436;5.980;2023-11-19T00:27:39;35.30;31.91;50.57;;
71020;Laerm;58902;51.436;5.980;2023-11-19T00:27:50;33.89;31.79;39.47;;
71020;Laerm;58902;51.436;5.980;2023-11-19T00:28:01;35.41;32.24;50.17;;
71020;Laerm;58902;51.436;5.980;2023-11-19T00:28:12;34.49;32.52;40.68;;
71020;Laerm;58902;51.436;5.980;2023-11-19T00:28:22;35.26;32.69;48.45;;
71020;Laerm;58902;51.436;5.980;2023-11-19T00:28:34;37.02;33.46;49.33;;
71020;Laerm;58902;51.436;5.980;2023-11-19T00:28:44;34.29;31.84;41.26;;
71020;Laerm;58902;51.436;5.980;2023-11-19T00:28:54;34.11;31.52;49.30;;
71020;Laerm;58902;51.436;5.980;2023-11-19T00:29:06;33.99;32.08;40.19;;
71020;Laerm;58902;51.436;5.980;2023-11-19T00:29:16;33.96;31.70;46.75;;
71020;Laerm;58902;51.436;5.980;2023-11-19T00:29:28;33.67;31.66;41.21;;
71020;Laerm;58902;51.436;5.980;2023-11-19T00:29:39;33.47;31.44;37.91;;
71020;Laerm;58902;51.436;5.980;2023-11-19T00:29:50;34.33;31.48;48.17;;
71020;Laerm;58902;51.436;5.980;2023-11-19T00:30:00;32.95;31.32;39.95;;
71020;Laerm;58902;51.436;5.980;2023-11-19T00:30:11;34.41;31.51;46.77;;
71020;Laerm;58902;51.436;5.980;2023-11-19T00:30:21;34.19;31.48;47.67;;
71020;Laerm;58902;51.436;5.980;2023-11-19T00:30:32;33.34;31.53;39.09;;
71020;Laerm;58902;51.436;5.980;2023-11-19T00:30:42;33.26;31.30;39.49;;
71020;Laerm;58902;51.436;5.980;2023-11-19T00:30:52;33.75;31.96;40.52;;
71020;Laerm;58902;51.436;5.980;2023-11-19T00:31:03;33.76;31.80;39.83;;
71020;Laerm;58902;51.436;5.980;2023-11-19T00:31:13;35.52;31.85;39.03;;
71020;Laerm;58902;51.436;5.980;2023-11-19T00:31:24;45.70;34.77;60.60;;
71020;Laerm;58902;51.436;5.980;2023-11-19T00:31:34;36.48;33.64;40.11;;
71020;Laerm;58902;51.436;5.980;2023-11-19T00:31:45;37.45;35.24;50.88;;
71020;Laerm;58902;51.436;5.980;2023-11-19T00:31:55;37.86;34.13;41.58;;
71020;Laerm;58902;51.436;5.980;2023-11-19T00:32:06;34.60;31.70;47.01;;
71020;Laerm;58902;51.436;5.980;2023-11-19T00:32:17;33.26;31.74;39.45;;
71020;Laerm;58902;51.436;5.980;2023-11-19T00:32:28;33.95;31.51;45.07;;
71020;Laerm;58902;51.436;5.980;2023-11-19T00:32:42;33.82;31.49;41.02;;
71020;Laerm;58902;51.436;5.980;2023-11-19T00:32:53;33.24;30.79;42.33;;
71020;Laerm;58902;51.436;5.980;2023-11-19T00:33:03;44.08;32.86;59.39;;
71020;Laerm;58902;51.436;5.980;2023-11-19T00:33:13;34.92;31.26;46.67;;
71020;Laerm;58902;51.436;5.980;2023-11-19T00:33:24;33.88;31.59;38.47;;
71020;Laerm;58902;51.436;5.980;2023-11-19T00:33:34;48.38;31.31;72.24;;
71020;Laerm;58902;51.436;5.980;2023-11-19T00:33:45;33.96;31.97;39.79;;
71020;Laerm;58902;51.436;5.980;2023-11-19T00:33:56;34.02;31.83;45.51;;
71020;Laerm;58902;51.436;5.980;2023-11-19T00:34:06;33.03;31.34;39.60;;
71020;Laerm;58902;51.436;5.980;2023-11-19T00:34:16;33.94;31.95;47.06;;
71020;Laerm;58902;51.436;5.980;2023-11-19T00:34:31;35.04;32.90;41.90;;
71020;Laerm;58902;51.436;5.980;2023-11-19T00:34:43;36.33;33.73;40.39;;
71020;Laerm;58902;51.436;5.980;2023-11-19T00:34:53;36.47;34.17;39.02;;
71020;Laerm;58902;51.436;5.980;2023-11-19T00:35:04;39.59;35.29;44.11;;
71020;Laerm;58902;51.436;5.980;2023-11-19T00:35:15;42.26;36.61;48.43;;
71020;Laerm;58902;51.436;5.980;2023-11-19T00:35:26;41.28;35.78;46.51;;
71020;Laerm;58902;51.436;5.980;2023-11-19T00:35:36;37.85;33.83;41.46;;
71020;Laerm;58902;51.436;5.980;2023-11-19T00:35:47;35.81;33.07;48.36;;
71020;Laerm;58902;51.436;5.980;2023-11-19T00:35:58;34.51;31.97;40.48;;
71020;Laerm;58902;51.436;5.980;2023-11-19T00:36:09;35.06;32.44;37.96;;
71020;Laerm;58902;51.436;5.980;2023-11-19T00:36:19;34.53;32.82;40.24;;
71020;Laerm;58902;51.436;5.980;2023-11-19T00:36:30;33.41;31.80;36.28;;
71020;Laerm;58902;51.436;5.980;2023-11-19T00:36:41;35.38;32.42;39.27;;
71020;Laerm;58902;51.436;5.980;2023-11-19T00:36:51;34.28;31.84;36.90;;
71020;Laerm;58902;51.436;5.980;2023-11-19T00:37:02;32.26;31.00;37.48;;
71020;Laerm;58902;51.436;5.980;2023-11-19T00:37:14;32.02;30.32;35.07;;
71020;Laerm;58902;51.436;5.980;2023-11-19T00:37:25;31.92;30.32;37.81;;
71020;Laerm;58902;51.436;5.980;2023-11-19T00:37:35;32.79;30.52;44.72;;
71020;Laerm;58902;51.436;5.980;2023-11-19T00:37:46;34.37;32.04;37.86;;
71020;Laerm;58902;51.436;5.980;2023-11-19T00:37:57;34.46;31.19;38.66;;
71020;Laerm;58902;51.436;5.980;2023-11-19T00:38:08;36.13;31.88;50.68;;
71020;Laerm;58902;51.436;5.980;2023-11-19T00:38:21;37.64;33.93;42.06;;
71020;Laerm;58902;51.436;5.980;2023-11-19T00:38:32;38.18;34.52;41.49;;
71020;Laerm;58902;51.436;5.980;2023-11-19T00:38:42;35.37;31.52;47.40;;
71020;Laerm;58902;51.436;5.980;2023-11-19T00:38:52;33.96;30.87;43.85;;
71020;Laerm;58902;51.436;5.980;2023-11-19T00:39:03;33.15;31.36;37.67;;
71020;Laerm;58902;51.436;5.980;2023-11-19T00:39:13;32.22;30.12;35.22;;
71020;Laerm;58902;51.436;5.980;2023-11-19T00:39:25;32.16;30.42;38.29;;
71020;Laerm;58902;51.436;5.980;2023-11-19T00:39:35;32.17;30.25;46.45;;
71020;Laerm;58902;51.436;5.980;2023-11-19T00:39:45;32.21;30.35;37.91;;
71020;Laerm;58902;51.436;5.980;2023-11-19T00:39:56;32.41;30.50;35.97;;
71020;Laerm;58902;51.436;5.980;2023-11-19T00:40:06;33.58;30.95;38.04;;
71020;Laerm;58902;51.436;5.980;2023-11-19T00:40:18;42.30;33.67;46.93;;
71020;Laerm;58902;51.436;5.980;2023-11-19T00:40:31;42.03;39.20;45.06;;
71020;Laerm;58902;51.436;5.980;2023-11-19T00:40:42;39.17;35.07;41.97;;
71020;Laerm;58902;51.436;5.980;2023-11-19T00:40:52;36.51;33.84;39.37;;
71020;Laerm;58902;51.436;5.980;2023-11-19T00:41:03;42.46;34.88;54.85;;
71020;Laerm;58902;51.436;5.980;2023-11-19T00:41:14;39.56;35.45;49.52;;
71020;Laerm;58902;51.436;5.980;2023-11-19T00:41:26;36.57;33.57;41.36;;
71020;Laerm;58902;51.436;5.980;2023-11-19T00:41:37;34.76;31.13;50.11;;
71020;Laerm;58902;51.436;5.980;2023-11-19T00:41:47;32.53;30.52;40.19;;
71020;Laerm;58902;51.436;5.980;2023-11-19T00:41:57;32.92;31.21;39.75;;
71020;Laerm;58902;51.436;5.980;2023-11-19T00:42:11;33.25;31.54;40.56;;
71020;Laerm;58902;51.436;5.980;2023-11-19T00:42:22;33.52;31.33;49.99;;
71020;Laerm;58902;51.436;5.980;2023-11-19T00:42:33;32.47;30.49;43.49;;
71020;Laerm;58902;51.436;5.980;2023-11-19T00:42:43;32.02;29.95;39.58;;
71020;Laerm;58902;51.436;5.980;2023-11-19T00:42:54;32.43;29.89;47.94;;
71020;Laerm;58902;51.436;5.980;2023-11-19T00:43:04;31.45;29.33;37.46;;
71020;Laerm;58902;51.436;5.980;2023-11-19T00:43:15;32.09;29.93;40.88;;
71020;Laerm;58902;51.436;5.980;2023-11-19T00:43:25;31.77;29.98;37.20;;
71020;Laerm;58902;51.436;5.980;2023-11-19T00:43:36;32.99;30.28;50.27;;
71020;Laerm;58902;51.436;5.980;2023-11-19T00:43:46;32.08;30.46;34.72;;
71020;Laerm;58902;51.436;5.980;2023-11-19T00:43:57;35.94;31.46;42.11;;
71020;Laerm;58902;51.436;5.980;2023-11-19T00:44:07;50.03;39.55;57.91;;
71020;Laerm;58902;51.436;5.980;2023-11-19T00:44:17;35.98;31.10;41.53;;
71020;Laerm;58902;51.436;5.980;2023-11-19T00:44:29;36.53;31.28;49.31;;
71020;Laerm;58902;51.436;5.980;2023-11-19T00:44:40;35.72;31.36;49.96;;
71020;Laerm;58902;51.436;5.980;2023-11-19T00:44:51;36.81;30.05;41.07;;
71020;Laerm;58902;51.436;5.980;2023-11-19T00:45:01;33.97;29.90;37.54;;
71020;Laerm;58902;51.436;5.980;2023-11-19T00:45:12;33.98;31.12;37.55;;
71020;Laerm;58902;51.436;5.980;2023-11-19T00:45:23;32.60;30.71;41.44;;
71020;Laerm;58902;51.436;5.980;2023-11-19T00:45:34;31.87;29.75;40.46;;
71020;Laerm;58902;51.436;5.980;2023-11-19T00:45:44;33.41;31.13;47.45;;
71020;Laerm;58902;51.436;5.980;2023-11-19T00:45:54;33.26;30.87;41.49;;
71020;Laerm;58902;51.436;5.980;2023-11-19T00:46:07;32.40;30.75;39.86;;
71020;Laerm;58902;51.436;5.980;2023-11-19T00:46:17;32.24;29.88;42.22;;
71020;Laerm;58902;51.436;5.980;2023-11-19T00:46:27;33.62;29.82;40.07;;
71020;Laerm;58902;51.436;5.980;2023-11-19T00:46:38;37.16;32.37;42.77;;
71020;Laerm;58902;51.436;5.980;2023-11-19T00:46:49;35.92;31.43;46.64;;
71020;Laerm;58902;51.436;5.980;2023-11-19T00:46:59;34.05;31.12;38.36;;
71020;Laerm;58902;51.436;5.980;2023-11-19T00:47:10;34.56;31.69;42.81;;
71020;Laerm;58902;51.436;5.980;2023-11-19T00:47:20;34.57;31.65;39.28;;
71020;Laerm;58902;51.436;5.980;2023-11-19T00:47:31;32.92;30.34;41.28;;
71020;Laerm;58902;51.436;5.980;2023-11-19T00:47:41;32.46;30.03;39.45;;
71020;Laerm;58902;51.436;5.980;2023-11-19T00:47:51;31.66;29.92;39.57;;
71020;Laerm;58902;51.436;5.980;2023-11-19T00:48:02;33.43;29.47;49.34;;
71020;Laerm;58902;51.436;5.980;2023-11-19T00:48:12;32.45;29.92;38.83;;
71020;Laerm;58902;51.436;5.980;2023-11-19T00:48:23;37.10;32.54;39.65;;
71020;Laerm;58902;51.436;5.980;2023-11-19T00:48:33;35.95;33.70;40.56;;
71020;Laerm;58902;51.436;5.980;2023-11-19T00:48:44;34.27;31.92;39.54;;
71020;Laerm;58902;51.436;5.980;2023-11-19T00:48:54;33.78;30.57;40.04;;
71020;Laerm;58902;51.436;5.980;2023-11-19T00:49:05;32.76;29.95;46.82;;
71020;Laerm;58902;51.436;5.980;2023-11-19T00:49:15;31.77;29.42;39.89;;
71020;Laerm;58902;51.436;5.980;2023-11-19T00:49:26;31.74;29.71;45.37;;
71020;Laerm;58902;51.436;5.980;2023-11-19T00:49:36;31.66;29.63;40.31;;
71020;Laerm;58902;51.436;5.980;2023-11-19T00:49:47;31.43;29.76;39.44;;
71020;Laerm;58902;51.436;5.980;2023-11-19T00:49:58;31.48;29.47;41.90;;
71020;Laerm;58902;51.436;5.980;2023-11-19T00:50:09;31.73;29.48;44.83;;
71020;Laerm;58902;51.436;5.980;2023-11-19T00:50:19;30.90;28.79;39.07;;
71020;Laerm;58902;51.436;5.980;2023-11-19T00:50:30;30.93;29.13;38.99;;
71020;Laerm;58902;51.436;5.980;2023-11-19T00:50:41;30.61;29.25;33.26;;
71020;Laerm;58902;51.436;5.980;2023-11-19T00:50:54;31.84;29.06;49.33;;
71020;Laerm;58902;51.436;5.980;2023-11-19T00:51:05;33.85;29.72;45.44;;
71020;Laerm;58902;51.436;5.980;2023-11-19T00:51:15;38.96;35.91;43.33;;
71020;Laerm;58902;51.436;5.980;2023-11-19T00:51:25;35.65;32.77;40.26;;
71020;Laerm;58902;51.436;5.980;2023-11-19T00:51:36;33.83;30.93;38.16;;
71020;Laerm;58902;51.436;5.980;2023-11-19T00:51:47;33.42;30.52;37.64;;
71020;Laerm;58902;51.436;5.980;2023-11-19T00:51:59;32.04;30.57;38.75;;
71020;Laerm;58902;51.436;5.980;2023-11-19T00:52:10;32.39;30.15;40.74;;
71020;Laerm;58902;51.436;5.980;2023-11-19T00:52:20;31.77;30.28;37.98;;
71020;Laerm;58902;51.436;5.980;2023-11-19T00:52:32;32.29;29.66;48.23;;
71020;Laerm;58902;51.436;5.980;2023-11-19T00:52:42;31.88;29.93;38.44;;
71020;Laerm;58902;51.436;5.980;2023-11-19T00:52:53;31.67;29.99;38.83;;
71020;Laerm;58902;51.436;5.980;2023-11-19T00:53:03;33.25;29.80;50.09;;
71020;Laerm;58902;51.436;5.980;2023-11-19T00:53:14;31.13;29.47;38.18;;
71020;Laerm;58902;51.436;5.980;2023-11-19T00:53:24;31.08;29.11;39.32;;
71020;Laerm;58902;51.436;5.980;2023-11-19T00:53:35;31.48;29.36;45.14;;
71020;Laerm;58902;51.436;5.980;2023-11-19T00:53:45;31.93;30.01;37.41;;
71020;Laerm;58902;51.436;5.980;2023-11-19T00:53:55;31.76;29.30;36.49;;
71020;Laerm;58902;51.436;5.980;2023-11-19T00:54:06;31.94;30.30;38.49;;
71020;Laerm;58902;51.436;5.980;2023-11-19T00:54:16;32.71;29.96;46.75;;
71020;Laerm;58902;51.436;5.980;2023-11-19T00:54:27;32.81;30.64;38.29;;
71020;Laerm;58902;51.436;5.980;2023-11-19T00:54:37;34.65;31.87;39.50;;
71020;Laerm;58902;51.436;5.980;2023-11-19T00:54:47;33.27;31.34;37.13;;
71020;Laerm;58902;51.436;5.980;2023-11-19T00:54:58;35.15;32.35;38.50;;
71020;Laerm;58902;51.436;5.980;2023-11-19T00:55:08;38.11;35.60;42.08;;
71020;Laerm;58902;51.436;5.980;2023-11-19T00:55:19;38.13;31.22;46.22;;
71020;Laerm;58902;51.436;5.980;2023-11-19T00:55:29;32.79;30.74;38.68;;
71020;Laerm;58902;51.436;5.980;2023-11-19T00:55:40;33.49;30.59;43.78;;
71020;Laerm;58902;51.436;5.980;2023-11-19T00:55:50;33.71;30.55;37.82;;
71020;Laerm;58902;51.436;5.980;2023-11-19T00:56:00;38.40;33.67;43.98;;
71020;Laerm;58902;51.436;5.980;2023-11-19T00:56:11;38.26;31.12;45.90;;
71020;Laerm;58902;51.436;5.980;2023-11-19T00:56:22;41.76;33.16;47.21;;
71020;Laerm;58902;51.436;5.980;2023-11-19T00:56:33;34.88;32.64;38.11;;
71020;Laerm;58902;51.436;5.980;2023-11-19T00:56:43;35.35;32.10;38.16;;
71020;Laerm;58902;51.436;5.980;2023-11-19T00:56:54;38.32;34.21;42.54;;
71020;Laerm;58902;51.436;5.980;2023-11-19T00:57:05;74.37;41.01;81.14;;
71020;Laerm;58902;51.436;5.980;2023-11-19T00:57:16;76.77;72.85;80.75;;
71020;Laerm;58902;51.436;5.980;2023-11-19T00:57:26;62.60;44.63;75.73;;
71020;Laerm;58902;51.436;5.980;2023-11-19T00:57:37;41.79;36.79;46.84;;
71020;Laerm;58902;51.436;5.980;2023-11-19T00:57:48;36.32;34.39;39.91;;
71020;Laerm;58902;51.436;5.980;2023-11-19T00:57:59;34.81;31.36;38.36;;
71020;Laerm;58902;51.436;5.980;2023-11-19T00:58:10;32.47;30.26;37.56;;
71020;Laerm;58902;51.436;5.980;2023-11-19T00:58:20;38.19;31.10;45.88;;
71020;Laerm;58902;51.436;5.980;2023-11-19T00:58:30;43.10;36.11;51.40;;
71020;Laerm;58902;51.436;5.980;2023-11-19T00:58:42;40.60;35.53;48.02;;
71020;Laerm;58902;51.436;5.980;2023-11-19T00:58:52;36.29;32.17;41.21;;
71020;Laerm;58902;51.436;5.980;2023-11-19T00:59:03;34.50;31.88;41.28;;
71020;Laerm;58902;51.436;5.980;2023-11-19T00:59:14;40.84;33.84;52.45;;
71020;Laerm;58902;51.436;5.980;2023-11-19T00:59:24;42.81;32.09;50.66;;
71020;Laerm;58902;51.436;5.980;2023-11-19T00:59:34;39.62;32.66;53.71;;
71020;Laerm;58902;51.436;5.980;2023-11-19T00:59:45;39.23;34.10;45.84;;
71020;Laerm;58902;51.436;5.980;2023-11-19T00:59:55;36.56;31.79;41.84;;
71020;Laerm;58902;51.436;5.980;2023-11-19T01:00:06;42.18;30.23;58.11;;
71020;Laerm;58902;51.436;5.980;2023-11-19T01:00:28;39.40;29.88;58.00;;